Aérodrome :
LOGIN :

S'inscrire | Disclaimer

   EN    FR    IT 

 










Légende :    VFR   VFR Marginal   IFR   IFR Intensif   IFR Très Intensif
Visi : 
Plafond : 
>= 8 km
>= 3000ft
5 à 8 km
1000 à 3000 ft
1500m à 5 km
500 à 1000 ft
800 à 1500m
200 à 500 ft
< 800m
< 200 ft
Symboles :   Orages  Brouillard  Fortes neiges  Fortes précipitations  Vent > 20 kt
SIGMETs :   Divers  Orages  Givrage  Turbulence  Onde Orograph.  Cendres Volcan.







- Altitude de l'aérodrome : 699 ft
- Code IATA : PAD


EDLP - Paderborn Lippstadt

DERNIER METAR :
  • 121550Z 06005KT 020V080 9999 FEW018 OVC025 03/00 Q1024

METARs EXPIRÉS :
  • 121520Z 06005KT 9999 OVC019 03/00 Q1024
  • 121450Z 05007KT 9999 FEW018 BKN024 03/00 Q1024
  • 121420Z 03005KT 360V060 9999 FEW018 SCT024 03/M00 Q1024
  • 121350Z 05006KT 020V090 9999 FEW018 BKN026 04/M00 Q1024
  • 121320Z 05006KT 9999 FEW017 04/M00 Q1024
  • 121250Z 08005KT 040V100 9999 SCT017 03/00 Q1025

TAF TAF EDLP
Valide du 12 à 12h jusqu'au 13 à 12h UTC


121100Z 1212/1312 04004KT 9999 BKN009
PROB30
TEMPO 1212/1220 4500 -DZ SCT009 BKN015
BECMG 1220/1224 10007KT SCT010 BKN020
Pas de NOTAMs connus pour ce terrain.



MET'MAP, la Météo Aéronautique d'un coup d'oeil ! - Copyright ORBIFLY Décembre 2007 - Disclaimer

ORBIFLY MET'MAP TEAM :

Programmation & Développement : Alexandra Zaïnal
Conception & Développement : Baudouin d'Aumeries
Co-Programmation & Développement : Marc-Olivier Méhu
Soutien technique & logistique : Manuel Goepfert

Contact : metmap@orbifly.com




SOURCES & CREDITS :

   NOAA